createdAt,value
2022-07-29T00:00:29.004Z,15.81
2022-07-29T00:01:29.003Z,15.80
2022-07-29T00:02:29.037Z,15.80
2022-07-29T00:03:29.641Z,15.81
2022-07-29T00:04:29.048Z,15.83
2022-07-29T00:05:28.990Z,15.83
2022-07-29T00:06:28.938Z,15.81
2022-07-29T00:07:28.939Z,15.81
2022-07-29T00:08:28.924Z,15.81
2022-07-29T00:09:28.900Z,15.80
2022-07-29T00:10:28.891Z,15.78
2022-07-29T00:11:29.869Z,15.76
2022-07-29T00:12:28.874Z,15.73
2022-07-29T00:13:32.500Z,15.69
2022-07-29T00:14:28.856Z,15.66
2022-07-29T00:15:29.089Z,15.67
2022-07-29T00:16:28.895Z,15.67
2022-07-29T00:17:28.890Z,15.66
2022-07-29T00:18:28.794Z,15.66
2022-07-29T00:19:28.798Z,15.66
2022-07-29T00:20:28.774Z,15.65
2022-07-29T00:21:28.770Z,15.65
2022-07-29T00:22:28.795Z,15.67
2022-07-29T00:23:30.642Z,15.67
2022-07-29T00:24:28.783Z,15.69
2022-07-29T00:25:28.718Z,15.67
2022-07-29T00:26:28.713Z,15.67
2022-07-29T00:27:28.717Z,15.67
2022-07-29T00:28:28.685Z,15.66
2022-07-29T00:29:33.981Z,15.62
2022-07-29T00:30:28.677Z,15.59
2022-07-29T00:31:28.719Z,15.55
2022-07-29T00:32:28.656Z,15.51
2022-07-29T00:33:28.648Z,15.52
2022-07-29T00:34:28.612Z,15.54
2022-07-29T00:35:28.654Z,15.55
2022-07-29T00:36:28.604Z,15.59
2022-07-29T00:37:28.585Z,15.60
2022-07-29T00:38:28.572Z,15.59
2022-07-29T00:39:28.565Z,15.57
2022-07-29T00:40:28.548Z,15.54
2022-07-29T00:41:28.598Z,15.55
2022-07-29T00:42:28.528Z,15.54
2022-07-29T00:43:28.523Z,15.54
2022-07-29T00:44:28.503Z,15.54
2022-07-29T00:45:28.501Z,15.55
2022-07-29T00:46:28.603Z,15.55
2022-07-29T00:47:28.522Z,15.55
2022-07-29T00:48:28.494Z,15.59
2022-07-29T00:49:28.577Z,15.57
2022-07-29T00:50:28.434Z,15.55
2022-07-29T00:51:29.348Z,15.55
2022-07-29T00:52:28.425Z,15.55
2022-07-29T00:53:28.447Z,15.54
2022-07-29T00:54:28.406Z,15.54
2022-07-29T00:55:28.387Z,15.55
2022-07-29T00:56:28.364Z,15.54
2022-07-29T00:57:28.377Z,15.54
2022-07-29T00:58:28.347Z,15.51
2022-07-29T00:59:35.013Z,15.48
2022-07-29T01:00:28.491Z,15.47
2022-07-29T01:01:28.373Z,15.41
2022-07-29T01:02:28.407Z,15.36
2022-07-29T01:03:28.296Z,15.35
2022-07-29T01:04:28.285Z,15.32
2022-07-29T01:05:49.940Z,15.30
2022-07-29T01:06:29.012Z,15.29
2022-07-29T01:07:28.259Z,15.29
2022-07-29T01:08:28.242Z,15.26
2022-07-29T01:09:42.143Z,15.25
2022-07-29T01:10:28.216Z,15.23
2022-07-29T01:11:28.244Z,15.19
2022-07-29T01:12:28.838Z,15.18
2022-07-29T01:13:28.209Z,15.15
2022-07-29T01:14:28.170Z,15.14
2022-07-29T01:15:28.156Z,15.11
2022-07-29T01:16:28.199Z,15.12
2022-07-29T01:17:28.171Z,15.12
2022-07-29T01:18:28.126Z,15.11
2022-07-29T01:19:28.127Z,15.08
2022-07-29T01:20:31.497Z,15.08
2022-07-29T01:21:28.090Z,15.05
2022-07-29T01:22:28.098Z,15.04
2022-07-29T01:23:28.202Z,15.04
2022-07-29T01:24:28.053Z,15.00
2022-07-29T01:25:28.314Z,14.99
2022-07-29T01:26:28.051Z,14.96
2022-07-29T01:27:28.026Z,14.94
2022-07-29T01:28:28.042Z,14.93
2022-07-29T01:29:28.995Z,14.90
2022-07-29T01:30:27.983Z,14.90
2022-07-29T01:31:27.981Z,14.89
2022-07-29T01:32:29.338Z,14.89
2022-07-29T01:33:27.987Z,14.90
2022-07-29T01:34:27.934Z,14.89
2022-07-29T01:35:27.986Z,14.90
2022-07-29T01:36:27.911Z,14.89
2022-07-29T01:37:27.921Z,14.90
2022-07-29T01:38:27.905Z,14.90
2022-07-29T01:39:27.906Z,14.90
2022-07-29T01:40:27.883Z,14.92
2022-07-29T01:41:27.913Z,14.92
2022-07-29T01:42:27.847Z,14.89
2022-07-29T01:43:27.838Z,14.89
2022-07-29T01:44:27.827Z,14.87
2022-07-29T01:45:27.815Z,14.87
2022-07-29T01:46:27.849Z,14.85
2022-07-29T01:47:27.859Z,14.86
2022-07-29T01:48:27.784Z,14.86
2022-07-29T01:49:27.932Z,14.89
2022-07-29T01:50:27.754Z,14.90
2022-07-29T01:51:27.801Z,14.92
2022-07-29T01:52:27.734Z,14.92
2022-07-29T01:53:27.756Z,14.93
2022-07-29T01:54:27.717Z,14.96
2022-07-29T01:55:27.701Z,14.97
2022-07-29T01:56:27.685Z,14.99
2022-07-29T01:57:27.685Z,15.00
2022-07-29T01:58:27.673Z,15.02
2022-07-29T01:59:27.741Z,15.02
2022-07-29T02:00:27.646Z,15.04
2022-07-29T02:01:27.702Z,15.04
2022-07-29T02:02:27.624Z,15.05
2022-07-29T02:03:27.605Z,15.05
2022-07-29T02:04:29.838Z,15.07
2022-07-29T02:05:27.730Z,15.10
2022-07-29T02:06:27.624Z,15.11
2022-07-29T02:07:27.559Z,15.14
2022-07-29T02:08:27.595Z,15.15
2022-07-29T02:09:27.551Z,15.18
2022-07-29T02:10:27.528Z,15.19
2022-07-29T02:11:27.599Z,15.19
2022-07-29T02:12:27.855Z,15.18
2022-07-29T02:13:27.532Z,15.18
2022-07-29T02:14:27.699Z,15.18
2022-07-29T02:15:27.468Z,15.17
2022-07-29T02:16:28.052Z,15.17
2022-07-29T02:17:27.524Z,15.17
2022-07-29T02:18:27.449Z,15.15
2022-07-29T02:19:27.425Z,15.18
2022-07-29T02:20:27.448Z,15.19
2022-07-29T02:21:27.440Z,15.23
2022-07-29T02:22:27.412Z,15.25
2022-07-29T02:23:27.434Z,15.22
2022-07-29T02:24:27.373Z,15.23
2022-07-29T02:25:37.083Z,15.25
2022-07-29T02:26:27.363Z,15.25
2022-07-29T02:27:27.349Z,15.25
2022-07-29T02:28:27.329Z,15.26
2022-07-29T02:29:27.452Z,15.26
2022-07-29T02:30:27.306Z,15.26
2022-07-29T02:31:27.357Z,15.23
2022-07-29T02:32:27.335Z,15.23
2022-07-29T02:33:27.330Z,15.23
2022-07-29T02:34:27.259Z,15.23
2022-07-29T02:35:27.306Z,15.22
2022-07-29T02:36:27.272Z,15.22
2022-07-29T02:37:27.226Z,15.19
2022-07-29T02:38:27.216Z,15.19
2022-07-29T02:39:27.202Z,15.19
2022-07-29T02:40:27.192Z,15.19
2022-07-29T02:41:27.231Z,15.19
2022-07-29T02:42:27.166Z,15.15
2022-07-29T02:43:27.922Z,15.17
2022-07-29T02:44:31.260Z,15.17
2022-07-29T02:45:27.198Z,15.17
2022-07-29T02:46:28.504Z,15.17
2022-07-29T02:47:27.192Z,15.18
2022-07-29T02:48:27.121Z,15.14
2022-07-29T02:49:27.154Z,15.15
2022-07-29T02:50:27.071Z,15.17
2022-07-29T02:51:43.587Z,15.18
2022-07-29T02:52:27.061Z,15.17
2022-07-29T02:53:27.090Z,15.17
2022-07-29T02:54:27.995Z,15.15
2022-07-29T02:55:27.023Z,15.14
2022-07-29T02:56:27.023Z,15.14
2022-07-29T02:57:27.034Z,15.12
2022-07-29T02:58:27.025Z,15.11
2022-07-29T02:59:27.456Z,15.08
2022-07-29T03:00:26.977Z,15.08
2022-07-29T03:01:27.062Z,15.07
2022-07-29T03:02:27.007Z,15.05
2022-07-29T03:03:26.923Z,15.05
2022-07-29T03:04:26.982Z,15.05
2022-07-29T03:05:26.935Z,15.05
2022-07-29T03:06:30.936Z,15.07
2022-07-29T03:07:26.908Z,15.05
2022-07-29T03:08:26.881Z,15.05
2022-07-29T03:09:27.924Z,15.07
2022-07-29T03:10:26.946Z,15.04
2022-07-29T03:11:40.160Z,15.02
2022-07-29T03:12:26.862Z,15.02
2022-07-29T03:13:26.900Z,14.99
2022-07-29T03:14:26.823Z,14.99
2022-07-29T03:15:26.857Z,14.97
2022-07-29T03:16:26.848Z,14.97
2022-07-29T03:17:26.816Z,14.97
2022-07-29T03:18:26.763Z,14.96
2022-07-29T03:19:26.807Z,14.94
2022-07-29T03:20:26.756Z,14.94
2022-07-29T03:21:26.741Z,14.92
2022-07-29T03:22:26.752Z,14.90
2022-07-29T03:23:26.763Z,14.89
2022-07-29T03:24:26.743Z,14.87
2022-07-29T03:25:26.678Z,14.86
2022-07-29T03:26:26.736Z,14.85
2022-07-29T03:27:26.669Z,14.82
2022-07-29T03:28:27.031Z,14.79
2022-07-29T03:29:33.846Z,14.78
2022-07-29T03:30:26.637Z,14.79
2022-07-29T03:31:26.683Z,14.77
2022-07-29T03:32:26.715Z,14.78
2022-07-29T03:33:26.589Z,14.74
2022-07-29T03:34:28.065Z,14.74
2022-07-29T03:35:27.476Z,14.73
2022-07-29T03:36:26.661Z,14.73
2022-07-29T03:37:26.560Z,14.73
2022-07-29T03:38:26.541Z,14.70
2022-07-29T03:39:26.527Z,14.68
2022-07-29T03:40:26.509Z,14.70
2022-07-29T03:41:26.613Z,14.70
2022-07-29T03:42:28.890Z,14.70
2022-07-29T03:43:26.472Z,14.73
2022-07-29T03:44:26.515Z,14.71
2022-07-29T03:45:26.445Z,14.73
2022-07-29T03:46:26.534Z,14.73
2022-07-29T03:47:49.516Z,14.71
2022-07-29T03:48:26.470Z,14.71
2022-07-29T03:49:26.564Z,14.70
2022-07-29T03:50:26.396Z,14.71
2022-07-29T03:51:33.939Z,14.71
2022-07-29T03:52:26.375Z,14.71
2022-07-29T03:53:26.454Z,14.74
2022-07-29T03:54:26.362Z,14.74
2022-07-29T03:55:26.331Z,14.77
2022-07-29T03:56:26.345Z,14.78
2022-07-29T03:57:26.304Z,14.81
2022-07-29T03:58:26.299Z,14.82
2022-07-29T03:59:26.335Z,14.85
2022-07-29T04:00:26.299Z,14.86
2022-07-29T04:01:26.341Z,14.92
2022-07-29T04:02:30.398Z,14.96
2022-07-29T04:03:26.302Z,15.00
2022-07-29T04:04:26.247Z,15.05
2022-07-29T04:05:26.301Z,15.10
2022-07-29T04:06:26.207Z,15.11
2022-07-29T04:07:26.290Z,15.15
2022-07-29T04:08:26.215Z,15.18
2022-07-29T04:09:26.192Z,15.19
2022-07-29T04:10:30.560Z,15.23
2022-07-29T04:11:26.420Z,15.23
2022-07-29T04:12:26.206Z,15.26
2022-07-29T04:13:26.200Z,15.27
2022-07-29T04:14:26.234Z,15.27
2022-07-29T04:15:26.378Z,15.30
2022-07-29T04:16:26.200Z,15.33
2022-07-29T04:17:26.283Z,15.33
2022-07-29T04:18:26.183Z,15.36
2022-07-29T04:19:26.352Z,15.37
2022-07-29T04:20:26.431Z,15.39
2022-07-29T04:21:26.281Z,15.39
2022-07-29T04:22:26.200Z,15.43
2022-07-29T04:23:26.213Z,15.43
2022-07-29T04:24:26.266Z,15.44
2022-07-29T04:25:26.350Z,15.43
2022-07-29T04:26:26.519Z,15.45
2022-07-29T04:27:26.942Z,15.47
2022-07-29T04:28:26.361Z,15.48
2022-07-29T04:29:26.323Z,15.51
2022-07-29T04:30:26.261Z,15.52
2022-07-29T04:31:26.265Z,15.52
2022-07-29T04:32:26.163Z,15.55
2022-07-29T04:33:26.293Z,15.57
2022-07-29T04:34:28.177Z,15.60
2022-07-29T04:35:26.522Z,15.60
2022-07-29T04:36:28.720Z,15.62
2022-07-29T04:37:26.059Z,15.62
2022-07-29T04:38:26.060Z,15.62
2022-07-29T04:39:29.576Z,15.65
2022-07-29T04:40:25.945Z,15.66
2022-07-29T04:41:33.268Z,15.67
2022-07-29T04:42:27.792Z,15.67
2022-07-29T04:43:26.225Z,15.70
2022-07-29T04:44:28.472Z,15.70
2022-07-29T04:45:25.928Z,15.73
2022-07-29T04:46:25.982Z,15.75
2022-07-29T04:47:25.950Z,15.78
2022-07-29T04:48:28.784Z,15.81
2022-07-29T04:49:26.200Z,15.83
2022-07-29T04:50:25.784Z,15.85
2022-07-29T04:51:26.129Z,15.87
2022-07-29T04:52:26.051Z,15.91
2022-07-29T04:53:26.250Z,15.91
2022-07-29T04:54:26.063Z,15.94
2022-07-29T04:55:25.961Z,15.94
2022-07-29T04:56:25.936Z,15.96
2022-07-29T04:57:25.904Z,15.96
2022-07-29T04:58:25.923Z,15.98
2022-07-29T04:59:25.663Z,16.00
2022-07-29T05:00:31.036Z,15.99
2022-07-29T05:01:25.766Z,16.00
2022-07-29T05:02:25.622Z,16.03
2022-07-29T05:03:25.559Z,16.06
2022-07-29T05:04:25.552Z,16.09
2022-07-29T05:05:25.595Z,16.10
2022-07-29T05:06:25.530Z,16.12
2022-07-29T05:07:25.541Z,16.13
2022-07-29T05:08:25.543Z,16.13
2022-07-29T05:09:25.511Z,16.17
2022-07-29T05:10:26.355Z,16.18
2022-07-29T05:11:30.230Z,16.18
2022-07-29T05:12:25.464Z,16.21
2022-07-29T05:13:25.454Z,16.22
2022-07-29T05:14:26.026Z,16.25
2022-07-29T05:15:25.476Z,16.25
2022-07-29T05:16:25.521Z,16.26
2022-07-29T05:17:25.433Z,16.26
2022-07-29T05:18:26.193Z,16.29
2022-07-29T05:19:25.380Z,16.31
2022-07-29T05:20:25.375Z,16.34
2022-07-29T05:21:25.379Z,16.36
2022-07-29T05:22:25.343Z,16.39
2022-07-29T05:23:25.390Z,16.40
2022-07-29T05:24:25.331Z,16.43
2022-07-29T05:25:25.331Z,16.43
2022-07-29T05:26:25.305Z,16.44
2022-07-29T05:27:25.308Z,16.49
2022-07-29T05:28:25.324Z,16.49
2022-07-29T05:29:44.390Z,16.49
2022-07-29T05:31:35.899Z,16.54
2022-07-29T05:32:36.876Z,16.57
2022-07-29T05:33:37.250Z,16.57
2022-07-29T05:34:36.918Z,16.59
2022-07-29T05:35:36.847Z,16.61
2022-07-29T05:36:36.835Z,16.61
2022-07-29T05:37:36.816Z,16.64
2022-07-29T05:38:37.015Z,16.65
2022-07-29T05:39:48.934Z,16.68
2022-07-29T05:40:36.859Z,16.68
2022-07-29T05:41:37.035Z,16.68
2022-07-29T05:42:36.759Z,16.72
2022-07-29T05:43:36.753Z,16.74
2022-07-29T05:44:37.390Z,16.74
2022-07-29T05:45:49.719Z,16.76
2022-07-29T05:46:36.828Z,16.76
2022-07-29T05:47:36.697Z,16.79
2022-07-29T05:48:36.744Z,16.80
2022-07-29T05:49:36.741Z,16.86
2022-07-29T05:50:36.660Z,16.84
2022-07-29T05:51:36.666Z,16.86
2022-07-29T05:52:36.690Z,16.87
2022-07-29T05:53:36.648Z,16.91
2022-07-29T05:54:36.629Z,16.94
2022-07-29T05:55:36.637Z,16.94
2022-07-29T05:56:36.621Z,16.94
2022-07-29T05:57:36.599Z,16.98
2022-07-29T05:58:36.638Z,17.02
2022-07-29T05:59:36.589Z,17.02
2022-07-29T06:00:36.728Z,16.99
2022-07-29T06:01:36.583Z,17.05
2022-07-29T06:02:36.550Z,17.07
2022-07-29T06:03:36.518Z,17.09
2022-07-29T06:04:36.617Z,17.07
2022-07-29T06:05:37.036Z,17.10
2022-07-29T06:06:36.488Z,17.14
2022-07-29T06:07:36.510Z,17.14
2022-07-29T06:08:36.467Z,17.13
2022-07-29T06:09:36.569Z,17.16
2022-07-29T06:10:36.474Z,17.14
2022-07-29T06:11:36.456Z,17.19
2022-07-29T06:12:36.424Z,17.23
2022-07-29T06:13:36.415Z,17.23
2022-07-29T06:14:36.391Z,17.19
2022-07-29T06:15:36.431Z,17.17
2022-07-29T06:16:36.473Z,17.17
2022-07-29T06:17:36.365Z,17.20
2022-07-29T06:18:36.360Z,17.17
2022-07-29T06:19:36.357Z,17.19
2022-07-29T06:20:36.330Z,17.19
2022-07-29T06:21:36.323Z,17.23
2022-07-29T06:22:36.347Z,17.24
2022-07-29T06:23:36.297Z,17.28
2022-07-29T06:24:36.304Z,17.24
2022-07-29T06:25:36.307Z,17.30
2022-07-29T06:26:39.622Z,17.28
2022-07-29T06:27:36.248Z,17.30
2022-07-29T06:28:36.281Z,17.31
2022-07-29T06:29:36.261Z,17.32
2022-07-29T06:30:36.359Z,17.30
2022-07-29T06:31:37.885Z,17.32
2022-07-29T06:32:40.037Z,17.32
2022-07-29T06:33:36.193Z,17.31
2022-07-29T06:34:36.278Z,17.34
2022-07-29T06:35:41.413Z,17.38
2022-07-29T06:36:37.727Z,17.37
2022-07-29T06:37:36.882Z,17.39
2022-07-29T06:38:40.385Z,17.41
2022-07-29T06:39:36.131Z,17.41
2022-07-29T06:40:36.935Z,17.39
2022-07-29T06:41:36.117Z,17.37
2022-07-29T06:42:36.089Z,17.34
2022-07-29T06:43:36.117Z,17.34
2022-07-29T06:44:36.240Z,17.32
2022-07-29T06:45:36.063Z,17.34
2022-07-29T06:46:36.850Z,17.37
2022-07-29T06:47:36.075Z,17.41
2022-07-29T06:48:36.087Z,17.41
2022-07-29T06:49:36.003Z,17.41
2022-07-29T06:50:36.096Z,17.41
2022-07-29T06:51:35.986Z,17.42
2022-07-29T06:52:36.196Z,17.49
2022-07-29T06:53:35.986Z,17.53
2022-07-29T06:54:36.132Z,17.53
2022-07-29T06:55:35.952Z,17.50
2022-07-29T06:56:38.305Z,17.52
2022-07-29T06:57:35.917Z,17.53
2022-07-29T06:58:36.807Z,17.50
2022-07-29T06:59:36.221Z,17.52
2022-07-29T07:00:36.191Z,17.53
2022-07-29T07:01:36.012Z,17.56
2022-07-29T07:02:35.929Z,17.60
2022-07-29T07:03:35.847Z,17.68
2022-07-29T07:04:35.866Z,17.73
2022-07-29T07:05:35.842Z,17.80
2022-07-29T07:06:35.807Z,17.87
2022-07-29T07:07:35.807Z,17.91
2022-07-29T07:08:35.794Z,18.00
2022-07-29T07:09:40.594Z,18.11
2022-07-29T07:10:35.832Z,18.12
2022-07-29T07:11:35.809Z,18.16
2022-07-29T07:12:35.749Z,18.15
2022-07-29T07:13:36.691Z,18.19
2022-07-29T07:14:35.727Z,18.23
2022-07-29T07:15:39.882Z,18.26
2022-07-29T07:16:35.909Z,18.27
2022-07-29T07:17:35.705Z,18.30
2022-07-29T07:18:35.671Z,18.39
2022-07-29T07:19:35.658Z,18.45
2022-07-29T07:20:35.654Z,18.49
2022-07-29T07:21:36.116Z,18.49
2022-07-29T07:22:38.745Z,18.42
2022-07-29T07:23:35.924Z,18.41
2022-07-29T07:24:35.647Z,18.42
2022-07-29T07:25:35.591Z,18.42
2022-07-29T07:26:35.605Z,18.41
2022-07-29T07:27:35.572Z,18.45
2022-07-29T07:28:35.637Z,18.48
2022-07-29T07:29:35.576Z,18.57
2022-07-29T07:30:35.535Z,18.63
2022-07-29T07:31:36.712Z,18.66
2022-07-29T07:32:35.743Z,18.74
2022-07-29T07:33:35.807Z,18.71
2022-07-29T07:34:35.854Z,18.76
2022-07-29T07:35:35.758Z,18.79
2022-07-29T07:36:35.664Z,18.83
2022-07-29T07:37:35.812Z,18.89
2022-07-29T07:38:35.642Z,18.92
2022-07-29T07:39:35.699Z,18.92
2022-07-29T07:40:35.534Z,18.92
2022-07-29T07:41:35.761Z,18.97
2022-07-29T07:42:35.454Z,18.97
2022-07-29T07:43:35.474Z,19.07
2022-07-29T07:44:51.274Z,19.16
2022-07-29T07:45:35.608Z,19.17
2022-07-29T07:46:35.626Z,19.19
2022-07-29T07:47:35.748Z,19.09
2022-07-29T07:48:35.792Z,19.04
2022-07-29T07:49:36.090Z,19.04
2022-07-29T07:50:35.663Z,18.94
2022-07-29T07:51:36.534Z,18.85
2022-07-29T07:52:35.421Z,18.82
2022-07-29T07:53:35.568Z,18.83
2022-07-29T07:54:35.350Z,18.76
2022-07-29T07:56:00.444Z,18.73
2022-07-29T07:56:35.652Z,18.70
2022-07-29T07:57:36.115Z,18.70
2022-07-29T07:58:35.328Z,18.63
2022-07-29T07:59:35.318Z,18.58
2022-07-29T08:00:35.554Z,18.58
2022-07-29T08:01:55.035Z,18.60
2022-07-29T08:02:35.303Z,18.63
2022-07-29T08:03:35.250Z,18.64
2022-07-29T08:04:35.610Z,18.61
2022-07-29T08:05:35.469Z,18.60
2022-07-29T08:06:35.689Z,18.61
2022-07-29T08:07:35.362Z,18.58
2022-07-29T08:08:35.121Z,18.60
2022-07-29T08:09:35.382Z,18.58
2022-07-29T08:10:35.300Z,18.57
2022-07-29T08:11:35.247Z,18.57
2022-07-29T08:12:35.340Z,18.55
2022-07-29T08:13:35.419Z,18.53
2022-07-29T08:14:35.421Z,18.53
2022-07-29T08:15:35.112Z,18.53
2022-07-29T08:16:35.674Z,18.51
2022-07-29T08:17:35.293Z,18.49
2022-07-29T08:18:35.143Z,18.51
2022-07-29T08:19:35.106Z,18.48
2022-07-29T08:20:35.167Z,18.46
2022-07-29T08:21:35.460Z,18.42
2022-07-29T08:22:35.307Z,18.49
2022-07-29T08:23:46.011Z,18.58
2022-07-29T08:24:35.451Z,18.66
2022-07-29T08:25:40.096Z,18.73
2022-07-29T08:26:35.103Z,18.81
2022-07-29T08:27:43.333Z,18.85
2022-07-29T08:28:34.980Z,18.94
2022-07-29T08:29:35.194Z,18.91
2022-07-29T08:30:35.067Z,18.91
2022-07-29T08:31:35.152Z,18.98
2022-07-29T08:32:53.137Z,18.98
2022-07-29T08:33:35.277Z,18.96
2022-07-29T08:34:34.910Z,18.92
2022-07-29T08:35:35.722Z,18.92
2022-07-29T08:36:35.026Z,18.92
2022-07-29T08:37:34.983Z,18.92
2022-07-29T08:38:34.838Z,18.96
2022-07-29T08:39:34.805Z,19.01
2022-07-29T08:40:35.258Z,18.96
2022-07-29T08:41:34.800Z,18.97
2022-07-29T08:42:35.053Z,19.00
2022-07-29T08:43:35.157Z,19.00
2022-07-29T08:44:34.907Z,19.09
2022-07-29T08:45:34.910Z,19.19
2022-07-29T08:46:35.294Z,19.29
2022-07-29T08:47:35.008Z,19.39
2022-07-29T08:48:35.169Z,19.48
2022-07-29T08:49:34.996Z,19.57
2022-07-29T08:50:34.798Z,19.55
2022-07-29T08:51:35.007Z,19.62
2022-07-29T08:52:35.049Z,19.63
2022-07-29T08:53:35.225Z,19.63
2022-07-29T08:54:35.201Z,19.64
2022-07-29T08:55:34.801Z,19.59
2022-07-29T08:56:34.903Z,19.59
2022-07-29T08:57:34.760Z,19.62
2022-07-29T08:58:36.727Z,19.74
2022-07-29T08:59:34.943Z,19.79
2022-07-29T09:00:34.965Z,19.87
2022-07-29T09:01:35.001Z,19.90
2022-07-29T09:02:34.701Z,19.99
2022-07-29T09:03:34.868Z,20.07
2022-07-29T09:04:34.959Z,20.10
2022-07-29T09:05:40.147Z,20.08
2022-07-29T09:06:34.734Z,20.07
2022-07-29T09:07:34.969Z,20.07
2022-07-29T09:08:34.648Z,20.03
2022-07-29T09:09:41.757Z,20.07
2022-07-29T09:10:34.829Z,20.10
2022-07-29T09:11:34.844Z,20.18
2022-07-29T09:12:37.965Z,20.26
2022-07-29T09:13:34.606Z,20.32
2022-07-29T09:14:34.947Z,20.34
2022-07-29T09:15:34.653Z,20.33
2022-07-29T09:16:52.260Z,20.32
2022-07-29T09:17:34.876Z,20.29
2022-07-29T09:18:34.647Z,20.30
2022-07-29T09:19:34.622Z,20.30
2022-07-29T09:20:34.516Z,20.33
2022-07-29T09:21:34.290Z,20.46
2022-07-29T09:22:38.805Z,20.55
2022-07-29T09:23:34.282Z,20.64
2022-07-29T09:24:34.528Z,20.67
2022-07-29T09:25:34.303Z,20.70
2022-07-29T09:26:34.420Z,20.73
2022-07-29T09:27:34.336Z,20.74
2022-07-29T09:28:34.516Z,20.77
2022-07-29T09:29:36.268Z,20.73
2022-07-29T09:30:34.606Z,20.73
2022-07-29T09:31:34.541Z,20.64
2022-07-29T09:32:34.321Z,20.67
2022-07-29T09:33:34.447Z,20.64
2022-07-29T09:34:34.467Z,20.66
2022-07-29T09:35:34.490Z,20.58
2022-07-29T09:36:34.618Z,20.60
2022-07-29T09:37:34.202Z,20.59
2022-07-29T09:38:34.139Z,20.56
2022-07-29T09:39:34.441Z,20.55
2022-07-29T09:40:34.484Z,20.52
2022-07-29T09:41:35.028Z,20.64
2022-07-29T09:42:34.690Z,20.75
2022-07-29T09:43:34.527Z,20.80
2022-07-29T09:44:34.251Z,20.75
2022-07-29T09:45:34.505Z,20.85
2022-07-29T09:46:34.490Z,21.10
2022-07-29T09:47:34.244Z,21.23
2022-07-29T09:48:34.158Z,21.23
2022-07-29T09:49:34.119Z,21.32
2022-07-29T09:50:34.332Z,21.44
2022-07-29T09:51:38.193Z,21.56
2022-07-29T09:52:33.987Z,21.66
2022-07-29T09:53:34.074Z,21.88
2022-07-29T09:54:34.095Z,22.15
2022-07-29T09:55:34.169Z,22.19
2022-07-29T09:56:33.930Z,22.16
2022-07-29T09:57:34.301Z,22.31
2022-07-29T09:58:34.379Z,22.41
2022-07-29T09:59:34.299Z,22.43
2022-07-29T10:00:34.389Z,22.37
2022-07-29T10:01:34.065Z,22.49
2022-07-29T10:02:34.194Z,22.67
2022-07-29T10:03:34.185Z,22.81
2022-07-29T10:04:34.325Z,22.95
2022-07-29T10:05:36.529Z,22.95
2022-07-29T10:06:33.963Z,22.80
2022-07-29T10:07:34.163Z,22.47
2022-07-29T10:08:34.220Z,22.46
2022-07-29T10:09:34.216Z,22.31
2022-07-29T10:10:34.476Z,22.15
2022-07-29T10:11:36.524Z,22.19
2022-07-29T10:12:34.045Z,22.12
2022-07-29T10:13:34.160Z,21.97
2022-07-29T10:14:34.072Z,22.03
2022-07-29T10:15:34.042Z,22.12
2022-07-29T10:16:34.174Z,22.15
2022-07-29T10:17:33.639Z,22.15
2022-07-29T10:18:33.663Z,22.18
2022-07-29T10:19:33.653Z,22.21
2022-07-29T10:20:33.633Z,22.22
2022-07-29T10:21:35.673Z,22.36
2022-07-29T10:22:52.545Z,22.25
2022-07-29T10:23:46.801Z,22.19
2022-07-29T10:24:33.623Z,22.03
2022-07-29T10:25:33.555Z,21.99
2022-07-29T10:26:33.558Z,21.94
2022-07-29T10:27:33.532Z,21.97
2022-07-29T10:28:33.610Z,22.06
2022-07-29T10:29:33.524Z,22.16
2022-07-29T10:30:33.579Z,22.15
2022-07-29T10:31:33.723Z,22.23
2022-07-29T10:32:33.543Z,22.18
2022-07-29T10:33:33.495Z,22.10
2022-07-29T10:34:33.694Z,22.16
2022-07-29T10:35:33.452Z,22.28
2022-07-29T10:36:33.509Z,22.25
2022-07-29T10:37:35.526Z,22.19
2022-07-29T10:38:33.423Z,22.18
2022-07-29T10:39:34.369Z,21.99
2022-07-29T10:40:33.441Z,22.04
2022-07-29T10:41:44.022Z,22.21
2022-07-29T10:42:34.492Z,22.26
2022-07-29T10:43:33.363Z,22.21
2022-07-29T10:44:33.392Z,22.33
2022-07-29T10:45:33.363Z,22.30
2022-07-29T10:46:33.470Z,22.25
2022-07-29T10:47:35.264Z,22.22
2022-07-29T10:48:33.371Z,22.18
2022-07-29T10:49:33.335Z,22.34
2022-07-29T10:50:33.346Z,22.41
2022-07-29T10:51:33.369Z,22.43
2022-07-29T10:52:33.437Z,22.47
2022-07-29T10:53:33.890Z,22.58
2022-07-29T10:54:33.237Z,22.61
2022-07-29T10:55:33.246Z,22.70
2022-07-29T10:56:33.219Z,22.80
2022-07-29T10:57:53.284Z,22.88
2022-07-29T10:58:33.905Z,22.93
2022-07-29T10:59:36.343Z,22.83
2022-07-29T11:00:33.217Z,22.81
2022-07-29T11:01:37.289Z,22.74
2022-07-29T11:02:42.250Z,22.59
2022-07-29T11:03:33.220Z,22.56
2022-07-29T11:04:33.255Z,22.47
2022-07-29T11:05:40.704Z,22.38
2022-07-29T11:06:33.168Z,22.41
2022-07-29T11:07:46.087Z,22.52
2022-07-29T11:08:33.079Z,22.49
2022-07-29T11:09:37.525Z,22.58
2022-07-29T11:10:33.119Z,22.68
2022-07-29T11:11:33.059Z,22.70
2022-07-29T11:12:33.113Z,22.71
2022-07-29T11:13:33.048Z,22.81
2022-07-29T11:14:33.026Z,22.92
2022-07-29T11:15:33.012Z,23.01
2022-07-29T11:16:33.029Z,23.02
2022-07-29T11:17:47.048Z,23.14
2022-07-29T11:18:33.016Z,23.08
2022-07-29T11:19:32.944Z,23.02
2022-07-29T11:20:32.978Z,23.14
2022-07-29T11:21:35.971Z,23.23
2022-07-29T11:22:32.984Z,23.29
2022-07-29T11:23:34.019Z,23.49
2022-07-29T11:24:32.914Z,23.64
2022-07-29T11:25:51.029Z,23.69
2022-07-29T11:26:32.996Z,23.69
2022-07-29T11:27:32.870Z,23.76
2022-07-29T11:28:32.928Z,23.85
2022-07-29T11:29:32.844Z,24.01
2022-07-29T11:30:32.828Z,23.96
2022-07-29T11:31:32.816Z,24.04
2022-07-29T11:32:32.827Z,24.03
2022-07-29T12:07:01.472Z,23.94
2022-07-29T12:07:15.539Z,24.97
2022-07-29T12:08:14.760Z,24.88
2022-07-29T12:09:14.738Z,24.84
2022-07-29T12:10:20.131Z,24.68
2022-07-29T12:11:12.708Z,24.89
2022-07-29T12:12:12.769Z,25.03
2022-07-29T12:13:12.696Z,24.85
2022-07-29T12:14:12.681Z,24.79
2022-07-29T12:15:12.660Z,24.66
2022-07-29T12:16:14.786Z,24.65
2022-07-29T12:17:12.641Z,24.68
2022-07-29T12:18:13.000Z,24.66
2022-07-29T12:19:12.791Z,24.58
2022-07-29T12:20:12.607Z,24.48
2022-07-29T12:21:12.665Z,24.68
2022-07-29T12:22:12.675Z,24.85
2022-07-29T12:23:12.622Z,24.81
2022-07-29T12:24:12.648Z,24.69
2022-07-29T12:26:25.432Z,24.43
2022-07-29T12:27:12.720Z,24.43
2022-07-29T12:28:14.101Z,24.46
2022-07-29T12:29:20.368Z,24.56
2022-07-29T12:30:12.506Z,24.51
2022-07-29T12:31:12.655Z,24.58
2022-07-29T12:32:15.000Z,24.65
2022-07-29T12:33:12.499Z,24.66
2022-07-29T12:34:12.455Z,24.77
2022-07-29T12:35:12.520Z,25.03
2022-07-29T12:36:17.314Z,25.34
2022-07-29T12:37:12.472Z,25.70
2022-07-29T12:38:12.562Z,25.96
2022-07-29T12:39:12.446Z,26.33
2022-07-29T12:40:12.395Z,26.63
2022-07-29T12:41:12.436Z,27.16
2022-07-29T12:42:14.801Z,27.47
2022-07-29T12:43:12.351Z,27.90
2022-07-29T12:44:12.346Z,27.98
2022-07-29T12:45:12.389Z,28.10
2022-07-29T12:46:12.439Z,28.40
2022-07-29T12:47:12.441Z,29.02
2022-07-29T12:48:12.381Z,29.32
2022-07-29T12:49:12.369Z,29.62
2022-07-29T12:50:12.315Z,29.92
2022-07-29T12:51:12.276Z,29.81
2022-07-29T12:52:12.404Z,29.80
2022-07-29T12:53:12.325Z,29.55
2022-07-29T12:54:12.280Z,29.65
2022-07-29T12:55:12.235Z,29.05
2022-07-29T12:56:33.284Z,28.96
2022-07-29T12:57:20.326Z,28.50
2022-07-29T12:58:12.309Z,28.06
2022-07-29T12:59:12.312Z,27.76
2022-07-29T13:00:12.237Z,27.37
2022-07-29T13:01:17.275Z,27.35
2022-07-29T13:02:12.208Z,27.81
2022-07-29T13:03:12.341Z,28.35
2022-07-29T13:04:12.271Z,28.50
2022-07-29T13:05:12.187Z,29.21
2022-07-29T13:06:12.157Z,29.76
2022-07-29T13:07:12.137Z,30.32
2022-07-29T13:08:20.099Z,31.10
2022-07-29T13:09:12.110Z,31.29
2022-07-29T13:10:12.119Z,31.37
2022-07-29T13:11:12.141Z,31.41
2022-07-29T13:12:12.069Z,31.74
2022-07-29T13:13:12.293Z,31.73
2022-07-29T13:14:12.036Z,31.97
2022-07-29T13:15:12.038Z,32.17
2022-07-29T13:16:12.047Z,32.19
2022-07-29T13:17:12.087Z,32.39
2022-07-29T13:18:14.547Z,32.53
2022-07-29T13:19:12.001Z,32.53
2022-07-29T13:20:11.973Z,32.17
2022-07-29T13:21:11.966Z,32.01
2022-07-29T13:22:11.944Z,32.24
2022-07-29T13:23:12.010Z,31.93
2022-07-29T13:24:12.731Z,32.07
2022-07-29T13:25:11.932Z,32.31
2022-07-29T13:26:12.103Z,32.27
2022-07-29T13:27:11.907Z,32.15